createdAt,value
2019-02-14T00:02:08.667Z,103180.02
2019-02-14T00:04:37.175Z,103182.23
2019-02-14T00:07:05.632Z,103180.16
2019-02-14T00:09:34.087Z,103191.25
2019-02-14T00:12:02.531Z,103186.20
2019-02-14T00:14:30.955Z,103184.84
2019-02-14T00:16:59.408Z,103184.83
2019-02-14T00:19:27.920Z,103187.55
2019-02-14T00:21:56.368Z,103193.23
2019-02-14T00:24:24.794Z,103191.02
2019-02-14T00:26:53.258Z,103191.14
2019-02-14T00:29:21.668Z,103195.08
2019-02-14T00:31:50.116Z,103186.67
2019-02-14T00:34:18.554Z,103184.47
2019-02-14T00:36:46.998Z,103176.92
2019-02-14T00:39:15.423Z,103182.23
2019-02-14T00:41:43.881Z,103178.90
2019-02-14T00:44:12.308Z,103193.98
2019-02-14T00:46:40.772Z,103186.67
2019-02-14T00:49:09.198Z,103188.77
2019-02-14T00:51:37.663Z,103194.83
2019-02-14T00:54:06.092Z,103179.50
2019-02-14T00:56:34.552Z,103192.50
2019-02-14T00:59:02.983Z,103195.20
2019-02-14T01:01:31.503Z,103184.95
2019-02-14T01:03:59.929Z,103184.58
2019-02-14T01:06:28.384Z,103175.80
2019-02-14T01:08:56.807Z,103166.78
2019-02-14T01:11:25.264Z,103173.70
2019-02-14T01:13:53.686Z,103177.67
2019-02-14T01:16:22.218Z,103181.73
2019-02-14T01:18:50.651Z,103183.45
2019-02-14T01:21:19.128Z,103187.81
2019-02-14T01:23:47.556Z,103183.72
2019-02-14T01:26:16.021Z,103181.38
2019-02-14T01:28:44.513Z,103167.17
2019-02-14T01:31:12.940Z,103175.33
2019-02-14T01:33:41.398Z,103173.84
2019-02-14T01:36:10.003Z,103161.00
2019-02-14T01:38:38.459Z,103174.47
2019-02-14T01:41:06.895Z,103175.08
2019-02-14T01:43:35.366Z,103178.04
2019-02-14T01:46:03.790Z,103174.58
2019-02-14T01:48:32.252Z,103177.56
2019-02-14T01:51:00.678Z,103163.72
2019-02-14T01:53:29.133Z,103158.66
2019-02-14T01:55:57.566Z,103170.49
2019-02-14T01:58:26.016Z,103169.25
2019-02-14T02:00:54.506Z,103169.15
2019-02-14T02:03:22.971Z,103161.36
2019-02-14T02:05:51.418Z,103152.23
2019-02-14T02:08:20.028Z,103161.98
2019-02-14T02:10:48.475Z,103157.88
2019-02-14T02:13:16.935Z,103173.08
2019-02-14T02:15:45.386Z,103184.19
2019-02-14T02:18:13.865Z,103182.95
2019-02-14T02:20:42.308Z,103178.89
2019-02-14T02:23:10.771Z,103176.03
2019-02-14T02:25:39.216Z,103151.85
2019-02-14T02:28:07.687Z,103153.08
2019-02-14T02:30:36.124Z,103156.05
2019-02-14T02:33:04.660Z,103156.15
2019-02-14T02:35:33.101Z,103150.17
2019-02-14T02:38:01.574Z,103144.28
2019-02-14T02:40:30.005Z,103142.37
2019-02-14T02:42:58.479Z,103142.37
2019-02-14T02:45:26.999Z,103150.88
2019-02-14T02:47:55.499Z,103154.68
2019-02-14T02:50:23.945Z,103161.69
2019-02-14T02:52:52.383Z,103167.23
2019-02-14T02:55:20.927Z,103169.80
2019-02-14T02:57:49.380Z,103188.58
2019-02-14T03:00:18.108Z,103179.03
2019-02-14T03:02:46.622Z,103179.03
2019-02-14T03:05:15.977Z,103187.14
2019-02-14T03:07:44.406Z,103184.56
2019-02-14T03:10:16.109Z,103178.50
2019-02-14T03:12:44.562Z,103168.55
2019-02-14T03:15:14.469Z,103182.57
2019-02-14T03:17:42.900Z,103182.57
2019-02-14T03:20:12.715Z,103185.73
2019-02-14T03:22:41.221Z,103191.41
2019-02-14T03:25:17.919Z,103191.41
2019-02-14T03:27:46.352Z,103199.19
2019-02-14T03:30:16.280Z,103202.41
2019-02-14T03:32:44.794Z,103205.42
2019-02-14T03:35:13.264Z,103211.88
2019-02-14T03:37:41.702Z,103211.88
2019-02-14T03:40:14.815Z,103220.94
2019-02-14T03:42:43.254Z,103220.94
2019-02-14T03:45:16.942Z,103213.23
2019-02-14T03:47:45.388Z,103229.61
2019-02-14T03:50:14.278Z,103224.25
2019-02-14T03:52:42.778Z,103224.25
2019-02-14T03:55:11.493Z,103232.16
2019-02-14T03:57:40.004Z,103235.64
2019-02-14T04:00:18.918Z,103225.64
2019-02-14T04:02:47.414Z,103225.64
2019-02-14T04:05:15.863Z,103238.38
2019-02-14T04:07:44.287Z,103244.77
2019-02-14T04:10:14.096Z,103244.77
2019-02-14T04:12:42.567Z,103258.80
2019-02-14T04:15:15.975Z,103259.38
2019-02-14T04:17:44.482Z,103248.08
2019-02-14T04:20:13.241Z,103245.78
2019-02-14T04:22:41.685Z,103243.14
2019-02-14T04:25:10.774Z,103251.95
2019-02-14T04:27:39.226Z,103251.95
2019-02-14T04:30:11.172Z,103259.71
2019-02-14T04:32:39.626Z,103248.59
2019-02-14T04:35:08.128Z,103246.66
2019-02-14T04:37:36.585Z,103249.68
2019-02-14T04:40:12.995Z,103246.05
2019-02-14T04:42:41.523Z,103250.83
2019-02-14T04:45:11.996Z,103249.66
2019-02-14T04:47:40.451Z,103249.66
2019-02-14T04:50:10.814Z,103241.30
2019-02-14T04:52:39.341Z,103241.11
2019-02-14T04:55:10.670Z,103245.17
2019-02-14T04:57:39.128Z,103245.17
2019-02-14T05:00:12.512Z,103235.75
2019-02-14T05:02:40.971Z,103242.86
2019-02-14T05:05:09.947Z,103242.52
2019-02-14T05:07:38.464Z,103232.11
2019-02-14T05:10:09.038Z,103238.72
2019-02-14T05:12:37.494Z,103248.30
2019-02-14T05:15:08.522Z,103255.62
2019-02-14T05:17:37.049Z,103233.36
2019-02-14T05:20:10.650Z,103235.66
2019-02-14T05:22:39.103Z,103235.66
2019-02-14T05:25:08.871Z,103244.53
2019-02-14T05:27:37.320Z,103238.59
2019-02-14T05:30:11.226Z,103243.82
2019-02-14T05:32:39.687Z,103254.13
2019-02-14T05:35:08.867Z,103263.78
2019-02-14T05:37:37.448Z,103272.36
2019-02-14T05:40:09.085Z,103271.06
2019-02-14T05:42:37.718Z,103267.05
2019-02-14T05:45:09.457Z,103265.48
2019-02-14T05:47:37.909Z,103267.55
2019-02-14T05:50:08.977Z,103269.00
2019-02-14T05:52:37.449Z,103263.22
2019-02-14T05:55:09.188Z,103262.90
2019-02-14T05:57:37.731Z,103262.90
2019-02-14T06:00:12.288Z,103265.34
2019-02-14T06:02:40.814Z,103253.44
2019-02-14T06:05:09.386Z,103262.41
2019-02-14T06:07:37.840Z,103262.99
2019-02-14T06:10:09.107Z,103264.89
2019-02-14T06:12:37.559Z,103265.98
2019-02-14T06:15:08.795Z,103257.84
2019-02-14T06:17:37.249Z,103256.58
2019-02-14T06:20:08.028Z,103255.31
2019-02-14T06:22:36.495Z,103253.86
2019-02-14T06:25:06.777Z,103263.97
2019-02-14T06:27:35.201Z,103265.48
2019-02-14T06:30:03.974Z,103273.95
2019-02-14T06:32:32.410Z,103273.09
2019-02-14T06:35:00.849Z,103264.89
2019-02-14T06:37:29.279Z,103257.02
2019-02-14T06:39:57.730Z,103257.02
2019-02-14T06:42:26.161Z,103275.22
2019-02-14T06:44:54.692Z,103274.66
2019-02-14T06:47:23.126Z,103285.50
2019-02-14T06:49:51.586Z,103293.08
2019-02-14T06:52:20.018Z,103279.37
2019-02-14T06:54:48.489Z,103287.13
2019-02-14T06:57:16.920Z,103287.13
2019-02-14T06:59:45.370Z,103313.89
2019-02-14T07:02:13.799Z,103313.89
2019-02-14T07:04:42.250Z,103322.80
2019-02-14T07:07:18.419Z,103322.80
2019-02-14T07:09:40.882Z,103334.50
2019-02-14T07:12:09.312Z,103333.02
2019-02-14T07:14:37.771Z,103336.59
2019-02-14T07:17:06.202Z,103331.79
2019-02-14T07:19:34.654Z,103319.38
2019-02-14T07:22:03.077Z,103319.38
2019-02-14T07:24:31.530Z,103324.19
2019-02-14T07:26:59.957Z,103349.88
2019-02-14T07:29:28.419Z,103349.88
2019-02-14T07:31:56.860Z,103338.95
2019-02-14T07:34:25.303Z,103350.44
2019-02-14T07:36:53.805Z,103351.55
2019-02-14T07:39:22.267Z,103352.10
2019-02-14T07:41:50.692Z,103353.24
2019-02-14T07:44:19.156Z,103355.70
2019-02-14T07:46:47.581Z,103343.29
2019-02-14T07:49:16.030Z,103341.84
2019-02-14T07:51:44.458Z,103345.69
2019-02-14T07:54:12.915Z,103351.64
2019-02-14T07:56:41.333Z,103352.56
2019-02-14T07:59:09.780Z,103345.92
2019-02-14T08:01:38.218Z,103335.32
2019-02-14T08:04:06.730Z,103331.74
2019-02-14T08:06:35.157Z,103331.43
2019-02-14T08:09:05.053Z,103327.36
2019-02-14T08:11:33.478Z,103325.53
2019-02-14T08:14:01.933Z,103322.81
2019-02-14T08:16:30.359Z,103319.73
2019-02-14T08:19:00.092Z,103323.00
2019-02-14T08:21:28.745Z,103322.68
2019-02-14T08:23:57.166Z,103319.61
2019-02-14T08:26:25.628Z,103323.33
2019-02-14T08:28:54.049Z,103314.60
2019-02-14T08:31:22.506Z,103307.46
2019-02-14T08:33:50.933Z,103310.69
2019-02-14T08:36:19.394Z,103306.52
2019-02-14T08:38:47.813Z,103307.02
2019-02-14T08:41:16.339Z,103306.16
2019-02-14T08:43:44.767Z,103303.81
2019-02-14T08:46:13.217Z,103305.94
2019-02-14T08:48:41.632Z,103304.84
2019-02-14T08:51:10.089Z,103298.42
2019-02-14T08:53:38.509Z,103297.70
2019-02-14T08:56:06.966Z,103291.77
2019-02-14T08:58:35.385Z,103294.84
2019-02-14T09:01:03.909Z,103301.41
2019-02-14T09:03:32.339Z,103301.91
2019-02-14T09:06:00.787Z,103297.60
2019-02-14T09:08:29.243Z,103304.39
2019-02-14T09:10:57.740Z,103299.95
2019-02-14T09:13:26.164Z,103298.23
2019-02-14T09:15:54.631Z,103299.73
2019-02-14T09:18:23.053Z,103304.46
2019-02-14T09:20:51.509Z,103309.56
2019-02-14T09:23:20.011Z,103317.61
2019-02-14T09:25:48.472Z,103310.32
2019-02-14T09:28:16.908Z,103314.19
2019-02-14T09:30:45.367Z,103316.64
2019-02-14T09:33:13.793Z,103313.92
2019-02-14T09:35:42.261Z,103319.86
2019-02-14T09:38:10.759Z,103324.19
2019-02-14T09:40:39.206Z,103322.56
2019-02-14T09:43:07.643Z,103320.48
2019-02-14T09:45:36.168Z,103312.44
2019-02-14T09:48:04.662Z,103309.20
2019-02-14T09:50:33.128Z,103313.63
2019-02-14T09:53:01.543Z,103300.05
2019-02-14T09:55:30.008Z,103302.91
2019-02-14T09:57:58.439Z,103308.56
2019-02-14T10:00:26.931Z,103312.19
2019-02-14T10:02:55.385Z,103301.47
2019-02-14T10:05:23.893Z,103304.80
2019-02-14T10:07:52.355Z,103299.75
2019-02-14T10:10:22.919Z,103299.73
2019-02-14T10:12:51.373Z,103305.69
2019-02-14T10:15:19.869Z,103301.72
2019-02-14T10:17:48.325Z,103308.64
2019-02-14T10:20:17.593Z,103305.31
2019-02-14T10:22:46.056Z,103301.97
2019-02-14T10:25:14.628Z,103306.55
2019-02-14T10:27:43.080Z,103305.44
2019-02-14T10:30:16.857Z,103301.60
2019-02-14T10:32:45.305Z,103307.55
2019-02-14T10:35:13.715Z,103292.81
2019-02-14T10:37:42.247Z,103287.63
2019-02-14T10:40:13.015Z,103282.19
2019-02-14T10:42:41.463Z,103282.41
2019-02-14T10:45:12.531Z,103278.08
2019-02-14T10:47:40.993Z,103280.69
2019-02-14T10:50:10.658Z,103282.05
2019-02-14T10:52:39.196Z,103284.00
2019-02-14T10:55:09.967Z,103289.19
2019-02-14T10:57:38.420Z,103280.89
2019-02-14T11:00:11.656Z,103275.34
2019-02-14T11:02:40.111Z,103271.62
2019-02-14T11:05:08.611Z,103276.28
2019-02-14T11:07:37.069Z,103279.32
2019-02-14T11:10:08.809Z,103284.11
2019-02-14T11:12:37.267Z,103283.38
2019-02-14T11:15:09.215Z,103282.47
2019-02-14T11:17:37.913Z,103274.24
2019-02-14T11:20:09.077Z,103286.03
2019-02-14T11:22:37.533Z,103280.48
2019-02-14T11:25:17.827Z,103269.92
2019-02-14T11:27:46.281Z,103272.66
2019-02-14T11:30:15.285Z,103268.66
2019-02-14T11:32:43.815Z,103274.97
2019-02-14T11:35:12.241Z,103265.14
2019-02-14T11:37:40.691Z,103261.36
2019-02-14T11:40:14.298Z,103260.91
2019-02-14T11:42:42.762Z,103259.99
2019-02-14T11:45:16.935Z,103261.59
2019-02-14T11:47:45.386Z,103252.30
2019-02-14T11:50:13.816Z,103256.47
2019-02-14T11:52:42.267Z,103254.69
2019-02-14T11:55:11.434Z,103247.55
2019-02-14T11:57:39.951Z,103252.38
2019-02-14T12:00:24.684Z,103250.78
2019-02-14T12:02:55.872Z,103247.76
2019-02-14T12:05:23.431Z,103246.06
2019-02-14T12:07:51.955Z,103248.61
2019-02-14T12:10:20.384Z,103245.04
2019-02-14T12:12:48.879Z,103241.45
2019-02-14T12:15:17.323Z,103240.28
2019-02-14T12:17:45.746Z,103243.87
2019-02-14T12:20:17.002Z,103235.22
2019-02-14T12:22:47.007Z,103237.25
2019-02-14T12:25:27.509Z,103236.28
2019-02-14T12:27:55.929Z,103239.32
2019-02-14T12:30:24.448Z,103233.74
2019-02-14T12:32:52.909Z,103226.92
2019-02-14T12:35:21.367Z,103227.20
2019-02-14T12:37:49.790Z,103222.67
2019-02-14T12:40:18.253Z,103216.94
2019-02-14T12:42:46.675Z,103212.99
2019-02-14T12:45:23.600Z,103207.95
2019-02-14T12:47:51.032Z,103213.92
2019-02-14T12:50:19.489Z,103209.76
2019-02-14T12:52:47.917Z,103208.59
2019-02-14T12:55:16.366Z,103213.42
2019-02-14T12:57:44.877Z,103206.82
2019-02-14T13:00:21.752Z,103203.76
2019-02-14T13:02:50.184Z,103199.30
2019-02-14T13:05:18.644Z,103198.86
2019-02-14T13:07:47.069Z,103195.27
2019-02-14T13:10:19.634Z,103186.44
2019-02-14T13:12:48.083Z,103178.59
2019-02-14T13:15:22.011Z,103187.52
2019-02-14T13:17:50.437Z,103187.16
2019-02-14T13:20:18.888Z,103183.19
2019-02-14T13:22:47.318Z,103172.34
2019-02-14T13:25:16.253Z,103172.34
2019-02-14T13:27:44.677Z,103174.64
2019-02-14T13:30:24.841Z,103167.54
2019-02-14T13:32:53.262Z,103165.16
2019-02-14T13:35:21.862Z,103165.73
2019-02-14T13:37:50.291Z,103167.39
2019-02-14T13:40:18.817Z,103168.30
2019-02-14T13:42:47.260Z,103176.50
2019-02-14T13:45:18.751Z,103165.64
2019-02-14T13:47:47.186Z,103169.10
2019-02-14T13:50:16.121Z,103164.28
2019-02-14T13:52:44.730Z,103167.58
2019-02-14T13:55:13.184Z,103176.38
2019-02-14T13:57:41.621Z,103171.91
2019-02-14T14:00:22.741Z,103173.64
2019-02-14T14:02:51.168Z,103174.57
2019-02-14T14:05:19.679Z,103168.88
2019-02-14T14:07:48.162Z,103174.00
2019-02-14T14:10:16.592Z,103172.34
2019-02-14T14:12:45.056Z,103175.42
2019-02-14T14:15:13.561Z,103173.14
2019-02-14T14:17:42.024Z,103171.84
2019-02-14T14:20:10.824Z,103176.06
2019-02-14T14:22:39.280Z,103173.27
2019-02-14T14:25:09.857Z,103176.00
2019-02-14T14:27:38.592Z,103179.08
2019-02-14T14:30:09.950Z,103178.09
2019-02-14T14:32:38.403Z,103179.23
2019-02-14T14:35:10.780Z,103173.94
2019-02-14T14:37:39.535Z,103176.50
2019-02-14T14:40:11.284Z,103177.36
2019-02-14T14:42:41.379Z,103177.88
2019-02-14T14:45:11.530Z,103175.14
2019-02-14T14:47:39.988Z,103164.56
2019-02-14T14:50:08.591Z,103164.72
2019-02-14T14:52:37.044Z,103157.09
2019-02-14T14:55:06.144Z,103155.50
2019-02-14T14:57:34.600Z,103149.98
2019-02-14T15:00:03.102Z,103151.50
2019-02-14T15:02:31.555Z,103155.76
2019-02-14T15:04:59.998Z,103149.79
2019-02-14T15:07:28.441Z,103148.20
2019-02-14T15:09:57.741Z,103152.23
2019-02-14T15:12:26.498Z,103152.95
2019-02-14T15:14:54.923Z,103146.69
2019-02-14T15:17:23.402Z,103146.04
2019-02-14T15:19:51.830Z,103145.74
2019-02-14T15:22:20.257Z,103147.03
2019-02-14T15:24:48.707Z,103145.95
2019-02-14T15:27:17.135Z,103149.46
2019-02-14T15:29:45.595Z,103145.88
2019-02-14T15:32:14.019Z,103145.80
2019-02-14T15:34:42.479Z,103142.53
2019-02-14T15:37:12.816Z,103136.50
2019-02-14T15:39:41.081Z,103135.33
2019-02-14T15:42:09.505Z,103139.27
2019-02-14T15:44:37.953Z,103146.27
2019-02-14T15:47:06.397Z,103142.49
2019-02-14T15:49:34.828Z,103141.11
2019-02-14T15:52:05.499Z,103138.84
2019-02-14T15:54:35.182Z,103136.56
2019-02-14T15:57:03.711Z,103140.59
2019-02-14T15:59:32.630Z,103135.22
2019-02-14T16:02:01.054Z,103139.09
2019-02-14T16:04:31.356Z,103144.20
2019-02-14T16:06:59.657Z,103139.19
2019-02-14T16:09:28.113Z,103133.09
2019-02-14T16:11:57.903Z,103141.92
2019-02-14T16:14:26.577Z,103139.77
2019-02-14T16:16:55.002Z,103132.52
2019-02-14T16:19:23.457Z,103142.83
2019-02-14T16:21:53.722Z,103143.27
2019-02-14T16:24:22.048Z,103136.13
2019-02-14T16:26:50.480Z,103153.81
2019-02-14T16:29:18.938Z,103147.30
2019-02-14T16:31:47.358Z,103148.77
2019-02-14T16:34:15.801Z,103148.11
2019-02-14T16:36:44.240Z,103150.38
2019-02-14T16:39:12.700Z,103155.54
2019-02-14T16:41:41.110Z,103158.25
2019-02-14T16:44:09.559Z,103161.83
2019-02-14T16:46:37.980Z,103158.25
2019-02-14T16:49:06.441Z,103155.67
2019-02-14T16:51:34.888Z,103161.63
2019-02-14T16:54:03.317Z,103158.08
2019-02-14T16:56:31.770Z,103157.35
2019-02-14T16:59:00.186Z,103150.80
2019-02-14T17:01:28.634Z,103161.53
2019-02-14T17:03:57.052Z,103160.38
2019-02-14T17:06:25.499Z,103167.12
2019-02-14T17:08:53.922Z,103168.47
2019-02-14T17:11:22.385Z,103165.06
2019-02-14T17:13:50.806Z,103170.58
2019-02-14T17:16:19.254Z,103172.86
2019-02-14T17:18:47.672Z,103172.11
2019-02-14T17:21:16.132Z,103171.18
2019-02-14T17:23:44.574Z,103170.76
2019-02-14T17:26:13.022Z,103174.25
2019-02-14T17:28:41.493Z,103176.23
2019-02-14T17:31:09.976Z,103177.84
2019-02-14T17:33:38.407Z,103176.84
2019-02-14T17:36:06.864Z,103176.20
2019-02-14T17:38:35.287Z,103176.20
2019-02-14T17:41:03.823Z,103167.98
2019-02-14T17:43:32.241Z,103177.53
2019-02-14T17:46:00.701Z,103180.48
2019-02-14T17:48:29.122Z,103176.97
2019-02-14T17:50:57.571Z,103177.83
2019-02-14T17:53:26.033Z,103184.84
2019-02-14T17:55:54.445Z,103178.08
2019-02-14T17:58:22.878Z,103188.85
2019-02-14T18:00:51.326Z,103186.89
2019-02-14T18:03:19.755Z,103186.89
2019-02-14T18:05:48.270Z,103179.17
2019-02-14T18:08:16.690Z,103179.17
2019-02-14T18:10:45.132Z,103175.98
2019-02-14T18:13:15.028Z,103171.72
2019-02-14T18:15:43.474Z,103167.98
2019-02-14T18:18:11.933Z,103163.93
2019-02-14T18:20:40.352Z,103181.12
2019-02-14T18:23:08.801Z,103180.09
2019-02-14T18:25:37.246Z,103185.72
2019-02-14T18:28:05.763Z,103189.45
2019-02-14T18:30:34.202Z,103189.45
2019-02-14T18:33:02.672Z,103188.91
2019-02-14T18:35:31.085Z,103187.09
2019-02-14T18:37:59.538Z,103193.06
2019-02-14T18:40:27.955Z,103190.86
2019-02-14T18:42:56.402Z,103189.81
2019-02-14T18:45:24.827Z,103193.44
2019-02-14T18:47:53.266Z,103194.84
2019-02-14T18:50:21.693Z,103198.06
2019-02-14T18:52:50.150Z,103203.17
2019-02-14T18:55:18.567Z,103208.28
2019-02-14T18:57:46.995Z,103208.28
2019-02-14T19:00:17.267Z,103211.76
2019-02-14T19:02:45.715Z,103211.57
2019-02-14T19:05:14.138Z,103212.63
2019-02-14T19:07:42.586Z,103213.79
2019-02-14T19:10:16.158Z,103216.48
2019-02-14T19:12:44.606Z,103212.63
2019-02-14T19:15:13.669Z,103218.33
2019-02-14T19:17:42.211Z,103217.23
2019-02-14T19:20:11.656Z,103213.48
2019-02-14T19:22:41.031Z,103205.87
2019-02-14T19:25:09.613Z,103205.87
2019-02-14T19:27:38.108Z,103206.46
2019-02-14T19:30:09.297Z,103202.41
2019-02-14T19:32:37.788Z,103205.55
2019-02-14T19:35:08.264Z,103211.95
2019-02-14T19:37:36.754Z,103207.77
2019-02-14T19:40:07.636Z,103203.34
2019-02-14T19:42:36.120Z,103208.73
2019-02-14T19:45:07.217Z,103208.05
2019-02-14T19:47:35.634Z,103204.48
2019-02-14T19:50:06.420Z,103204.48
2019-02-14T19:52:34.845Z,103199.75
2019-02-14T19:55:03.368Z,103200.03
2019-02-14T19:57:31.788Z,103202.04
2019-02-14T20:00:00.396Z,103194.44
2019-02-14T20:02:28.838Z,103201.17
2019-02-14T20:04:57.458Z,103214.45
2019-02-14T20:07:26.077Z,103212.52
2019-02-14T20:09:54.587Z,103212.34
2019-02-14T20:12:22.994Z,103218.14
2019-02-14T20:14:51.548Z,103217.52
2019-02-14T20:17:19.968Z,103220.42
2019-02-14T20:19:48.413Z,103225.37
2019-02-14T20:22:16.841Z,103219.88
2019-02-14T20:24:45.352Z,103213.86
2019-02-14T20:27:13.772Z,103216.51
2019-02-14T20:29:42.228Z,103213.00
2019-02-14T20:32:10.654Z,103215.25
2019-02-14T20:34:39.101Z,103221.94
2019-02-14T20:37:07.525Z,103214.95
2019-02-14T20:39:35.994Z,103209.89
2019-02-14T20:42:04.487Z,103218.93
2019-02-14T20:44:32.911Z,103221.51
2019-02-14T20:47:01.447Z,103221.34
2019-02-14T20:49:29.866Z,103222.69
2019-02-14T20:51:58.322Z,103218.02
2019-02-14T20:54:26.751Z,103215.59
2019-02-14T20:56:55.205Z,103214.25
2019-02-14T20:59:23.632Z,103216.72
2019-02-14T21:01:52.071Z,103219.41
2019-02-14T21:04:22.107Z,103219.99
2019-02-14T21:06:50.621Z,103221.55
2019-02-14T21:09:19.043Z,103222.32
2019-02-14T21:11:54.484Z,103216.61
2019-02-14T21:14:17.632Z,103214.41
2019-02-14T21:16:46.091Z,103217.59
2019-02-14T21:19:14.513Z,103220.81
2019-02-14T21:21:43.037Z,103221.56
2019-02-14T21:24:11.461Z,103223.28
2019-02-14T21:26:39.919Z,103225.56
2019-02-14T21:29:08.334Z,103226.20
2019-02-14T21:31:36.790Z,103232.99
2019-02-14T21:34:05.219Z,103227.83
2019-02-14T21:36:33.668Z,103221.07
2019-02-14T21:39:02.104Z,103222.31
2019-02-14T21:41:30.551Z,103223.13
2019-02-14T21:43:59.041Z,103227.33
2019-02-14T21:46:27.502Z,103224.20
2019-02-14T21:48:55.942Z,103223.02
2019-02-14T21:51:24.384Z,103230.07
2019-02-14T21:53:52.941Z,103231.30
2019-02-14T21:56:21.386Z,103233.56
2019-02-14T21:58:49.850Z,103233.88
2019-02-14T22:01:19.918Z,103232.22
2019-02-14T22:03:48.373Z,103237.44
2019-02-14T22:06:16.856Z,103233.59
2019-02-14T22:08:45.302Z,103234.56
2019-02-14T22:11:13.734Z,103227.41
2019-02-14T22:13:42.198Z,103232.58
2019-02-14T22:16:10.706Z,103235.42
2019-02-14T22:18:39.124Z,103232.05
2019-02-14T22:21:07.534Z,103235.31
2019-02-14T22:23:35.985Z,103236.59
2019-02-14T22:26:04.405Z,103230.89
2019-02-14T22:28:32.864Z,103227.91
2019-02-14T22:31:01.284Z,103225.91
2019-02-14T22:33:29.736Z,103228.11
2019-02-14T22:35:58.147Z,103229.46
2019-02-14T22:38:26.597Z,103229.08
2019-02-14T22:40:55.013Z,103228.59
2019-02-14T22:43:24.333Z,103232.17
2019-02-14T22:45:52.757Z,103236.03
2019-02-14T22:48:21.211Z,103237.29
2019-02-14T22:50:49.636Z,103241.94
2019-02-14T22:53:18.097Z,103246.84
2019-02-14T22:55:46.526Z,103249.38
2019-02-14T22:58:14.978Z,103250.55
2019-02-14T23:00:47.555Z,103241.31
2019-02-14T23:03:16.488Z,103239.17
2019-02-14T23:05:44.915Z,103236.58
2019-02-14T23:08:13.377Z,103239.55
2019-02-14T23:10:41.812Z,103238.50
2019-02-14T23:13:10.262Z,103242.00
2019-02-14T23:15:38.695Z,103244.98
2019-02-14T23:18:07.224Z,103246.27
2019-02-14T23:20:35.651Z,103243.44
2019-02-14T23:23:04.140Z,103248.19
2019-02-14T23:25:32.599Z,103244.92
2019-02-14T23:28:01.033Z,103250.54
2019-02-14T23:30:29.504Z,103248.48
2019-02-14T23:32:57.937Z,103246.51
2019-02-14T23:35:26.393Z,103246.50
2019-02-14T23:37:54.815Z,103251.55
2019-02-14T23:40:23.278Z,103244.83
2019-02-14T23:42:51.717Z,103243.01
2019-02-14T23:45:20.166Z,103241.61
2019-02-14T23:47:48.603Z,103242.86
2019-02-14T23:50:17.047Z,103242.86
2019-02-14T23:52:45.472Z,103239.45
2019-02-14T23:55:13.929Z,103238.34
2019-02-14T23:57:42.348Z,103240.89
